Time;durP1;ratioP1;P1;durP2;ratioP2;P2;SDS_P1;SDS_P2;PMS_P1;PMS_P2;Temp;Humidity;BMP_temperature;BMP_pressure;BME280_temperature;BME280_humidity;BME280_pressure;Samples;Min_cycle;Max_cycle;Signal;HPM_P1;HPM_P2
2024/03/11 00:01:06;;;;;;;40.05;36.35;;;6.90;90.50;;;;;;5005779;28;112650;-51
2024/03/11 00:03:33;;;;;;;38.90;35.20;;;6.90;90.40;;;;;;5007210;28;113153;-51
2024/03/11 00:06:01;;;;;;;37.40;33.78;;;6.90;90.30;;;;;;5006532;28;113108;-51
2024/03/11 00:08:26;;;;;;;37.55;33.78;;;6.90;90.30;;;;;;5005944;28;113201;-51
2024/03/11 00:10:55;;;;;;;41.33;37.03;;;7.00;90.60;;;;;;5004808;28;112668;-50
2024/03/11 00:13:25;;;;;;;41.15;37.35;;;6.90;90.50;;;;;;5000573;28;114649;-51
2024/03/11 00:15:51;;;;;;;60.85;39.78;;;6.90;90.80;;;;;;4998447;28;112587;-51
2024/03/11 00:18:20;;;;;;;60.13;39.50;;;6.90;90.70;;;;;;5002214;28;112523;-51
2024/03/11 00:20:46;;;;;;;99.88;43.38;;;6.90;90.60;;;;;;5007242;28;112896;-51
2024/03/11 00:23:13;;;;;;;93.35;42.65;;;6.90;90.90;;;;;;5006177;28;113204;-51
2024/03/11 00:25:39;;;;;;;134.38;43.78;;;6.80;90.80;;;;;;5002793;28;113859;-51
2024/03/11 00:28:06;;;;;;;144.35;43.45;;;6.70;90.70;;;;;;5006607;28;112937;-51
2024/03/11 00:30:31;;;;;;;104.53;45.47;;;6.70;90.80;;;;;;5005928;28;113035;-53
2024/03/11 00:32:59;;;;;;;120.88;41.95;;;6.60;90.80;;;;;;5006245;28;113197;-53
2024/03/11 00:35:25;;;;;;;39.03;34.13;;;6.40;90.80;;;;;;5004414;28;113774;-51
2024/03/11 00:37:51;;;;;;;36.22;33.03;;;6.40;90.70;;;;;;5005777;28;112773;-51
2024/03/11 00:40:18;;;;;;;36.58;33.38;;;6.30;90.60;;;;;;4994761;28;112995;-52
2024/03/11 00:42:44;;;;;;;39.03;35.17;;;6.40;90.60;;;;;;4993721;28;113315;-51
2024/03/11 00:45:11;;;;;;;41.45;37.50;;;6.40;90.40;;;;;;4996237;28;113899;-51
2024/03/11 00:47:39;;;;;;;43.65;39.53;;;6.30;90.20;;;;;;5009506;28;112969;-57
2024/03/11 00:50:07;;;;;;;34.53;31.42;;;6.30;90.50;;;;;;5010458;28;112664;-51
2024/03/11 00:52:36;;;;;;;35.47;32.22;;;6.30;90.50;;;;;;4993528;28;115321;-54
2024/03/11 00:55:03;;;;;;;34.00;31.00;;;6.30;90.30;;;;;;4997151;28;112826;-51
2024/03/11 00:57:29;;;;;;;36.30;32.80;;;6.40;90.20;;;;;;5000530;28;112716;-52
2024/03/11 00:59:56;;;;;;;34.00;30.98;;;6.40;90.00;;;;;;5000359;28;113103;-51
2024/03/11 01:02:25;;;;;;;30.70;28.00;;;6.30;90.00;;;;;;5006446;28;113154;-52
2024/03/11 01:04:52;;;;;;;31.80;28.83;;;6.30;89.80;;;;;;5001021;28;112801;-52
2024/03/11 01:07:20;;;;;;;34.30;31.00;;;6.30;89.70;;;;;;5005632;28;112891;-51
2024/03/11 01:09:46;;;;;;;37.00;33.33;;;6.30;89.70;;;;;;5003077;28;113915;-51
2024/03/11 01:12:12;;;;;;;58.70;36.63;;;6.30;89.90;;;;;;5008843;28;114363;-54
2024/03/11 01:14:37;;;;;;;42.22;37.90;;;6.30;89.90;;;;;;5004707;28;112998;-52
2024/03/11 01:17:04;;;;;;;47.45;41.88;;;6.20;90.10;;;;;;5001753;28;112941;-53
2024/03/11 01:19:30;;;;;;;40.83;37.08;;;6.30;90.50;;;;;;5004003;28;113079;-52
2024/03/11 01:21:58;;;;;;;36.92;33.47;;;6.30;90.60;;;;;;4995039;28;113395;-50
2024/03/11 01:24:24;;;;;;;47.10;38.17;;;6.30;90.40;;;;;;5003675;28;113396;-51
2024/03/11 01:26:50;;;;;;;38.40;34.88;;;6.30;90.30;;;;;;5006820;28;112796;-50
2024/03/11 01:29:16;;;;;;;35.25;31.85;;;6.30;90.40;;;;;;5008585;28;113029;-50
2024/03/11 01:31:45;;;;;;;35.65;32.47;;;6.30;90.20;;;;;;5008572;28;113683;-50
2024/03/11 01:34:11;;;;;;;39.65;36.00;;;6.20;90.20;;;;;;5008827;28;112965;-55
2024/03/11 01:36:37;;;;;;;40.70;36.80;;;6.30;90.40;;;;;;5008984;28;113067;-52
2024/03/11 01:39:08;;;;;;;49.13;43.55;;;6.30;90.70;;;;;;5006747;28;112763;-54
2024/03/11 01:41:38;;;;;;;42.45;38.05;;;6.40;90.80;;;;;;5002386;28;113282;-54
2024/03/11 01:44:09;;;;;;;65.63;48.60;;;6.60;90.80;;;;;;4995031;28;112583;-52
2024/03/11 01:46:35;;;;;;;53.30;42.03;;;6.70;90.90;;;;;;5000771;28;113088;-52
2024/03/11 01:49:06;;;;;;;55.97;43.25;;;6.70;90.90;;;;;;5009551;28;112762;-51
2024/03/11 01:51:35;;;;;;;82.13;44.50;;;6.80;91.00;;;;;;5005902;28;113396;-52
2024/03/11 01:54:02;;;;;;;94.68;48.53;;;6.90;91.30;;;;;;4990270;28;113026;-51
2024/03/11 01:56:28;;;;;;;104.25;51.78;;;6.90;91.30;;;;;;5006685;28;112804;-51
2024/03/11 01:58:58;;;;;;;103.32;52.00;;;6.90;91.40;;;;;;5009213;28;112769;-52
2024/03/11 02:01:24;;;;;;;94.65;44.22;;;6.90;91.60;;;;;;5006824;28;113301;-52
2024/03/11 02:03:50;;;;;;;106.00;45.40;;;7.00;91.70;;;;;;4999189;28;113040;-51
2024/03/11 02:06:17;;;;;;;134.30;51.83;;;7.10;91.90;;;;;;5008918;28;112639;-49
2024/03/11 02:08:43;;;;;;;88.07;45.55;;;7.20;92.00;;;;;;5007349;28;112774;-51
2024/03/11 02:11:09;;;;;;;110.60;44.85;;;7.30;92.10;;;;;;5006834;28;113567;-52
2024/03/11 02:13:35;;;;;;;159.25;48.72;;;7.30;92.10;;;;;;4997345;28;113806;-51
2024/03/11 02:16:01;;;;;;;115.22;48.20;;;7.40;92.20;;;;;;5008988;28;112533;-51
2024/03/11 02:18:28;;;;;;;105.72;46.78;;;7.40;92.40;;;;;;5008993;28;112749;-53
2024/03/11 02:20:53;;;;;;;166.23;51.15;;;7.40;92.50;;;;;;5008062;28;113465;-51
2024/03/11 02:23:20;;;;;;;135.88;50.08;;;7.60;92.60;;;;;;5007959;28;112819;-53
2024/03/11 02:25:46;;;;;;;106.55;48.75;;;7.60;92.50;;;;;;5008969;28;112778;-51
2024/03/11 02:28:12;;;;;;;105.45;47.22;;;7.60;92.60;;;;;;5007599;28;112768;-51
2024/03/11 02:30:38;;;;;;;115.03;49.72;;;7.50;92.50;;;;;;4990020;28;114442;-51
2024/03/11 02:33:05;;;;;;;116.88;45.88;;;7.60;92.60;;;;;;5007800;28;112667;-51
2024/03/11 02:35:31;;;;;;;128.60;46.00;;;7.60;92.50;;;;;;5008834;28;112743;-51
2024/03/11 02:37:57;;;;;;;104.68;44.45;;;7.60;92.60;;;;;;5009195;28;112773;-53
2024/03/11 02:40:26;;;;;;;146.07;44.38;;;7.70;92.50;;;;;;5007576;28;115029;-52
2024/03/11 02:42:56;;;;;;;109.65;46.60;;;7.70;92.50;;;;;;5007545;28;112873;-51
2024/03/11 02:45:25;;;;;;;94.32;42.38;;;7.70;92.50;;;;;;5008695;28;112651;-51
2024/03/11 02:47:51;;;;;;;93.57;47.17;;;7.70;92.50;;;;;;4991071;28;112763;-51
2024/03/11 02:50:17;;;;;;;70.07;43.38;;;7.80;92.50;;;;;;5007281;28;114597;-51
2024/03/11 02:52:43;;;;;;;93.47;44.38;;;7.80;92.50;;;;;;5007790;28;112638;-51
2024/03/11 02:55:14;;;;;;;80.95;43.08;;;7.80;92.40;;;;;;5008750;28;113106;-54
2024/03/11 02:57:41;;;;;;;127.70;41.42;;;7.80;92.30;;;;;;5008653;28;113032;-51
2024/03/11 03:00:10;;;;;;;97.75;43.55;;;7.90;92.10;;;;;;5006766;28;113967;-51
2024/03/11 03:02:38;;;;;;;109.25;45.80;;;7.90;92.40;;;;;;5005468;28;112960;-51
2024/03/11 03:05:04;;;;;;;97.80;41.85;;;7.90;92.40;;;;;;5007570;28;113044;-50
2024/03/11 03:07:30;;;;;;;93.50;44.25;;;7.90;92.40;;;;;;5006305;28;113067;-51
2024/03/11 03:09:56;;;;;;;113.25;46.60;;;7.90;92.40;;;;;;4987063;28;114503;-53
2024/03/11 03:12:23;;;;;;;186.68;47.97;;;8.00;92.40;;;;;;5006139;28;112994;-50
2024/03/11 03:14:49;;;;;;;90.65;45.10;;;8.10;92.30;;;;;;5006934;28;112885;-50
2024/03/11 03:17:14;;;;;;;97.32;43.80;;;8.10;92.40;;;;;;5007877;28;113320;-51
2024/03/11 03:19:40;;;;;;;99.10;44.42;;;8.20;92.30;;;;;;5020920;28;114530;-51
2024/03/11 03:22:09;;;;;;;87.53;45.45;;;8.20;92.20;;;;;;5007164;28;112809;-51
2024/03/11 03:24:35;;;;;;;79.53;42.50;;;8.30;92.20;;;;;;5007914;28;113058;-51
2024/03/11 03:27:00;;;;;;;88.18;43.70;;;8.30;92.00;;;;;;5007729;28;112794;-52
2024/03/11 03:29:26;;;;;;;76.10;44.85;;;8.30;92.00;;;;;;5006528;28;114460;-51
2024/03/11 03:31:52;;;;;;;81.75;42.67;;;8.30;91.90;;;;;;5006813;28;113073;-52
2024/03/11 03:34:18;;;;;;;87.55;44.70;;;8.30;91.80;;;;;;5008049;28;112972;-51
2024/03/11 03:36:43;;;;;;;80.80;43.65;;;8.30;91.90;;;;;;5008037;28;112634;-50
2024/03/11 03:39:10;;;;;;;85.38;44.35;;;8.30;91.90;;;;;;5006912;28;113771;-53
2024/03/11 03:41:36;;;;;;;85.00;44.60;;;8.40;91.80;;;;;;5006652;28;112734;-51
2024/03/11 03:44:06;;;;;;;102.57;46.10;;;8.40;91.80;;;;;;5002413;28;112719;-51
2024/03/11 03:46:31;;;;;;;103.60;46.65;;;8.40;91.70;;;;;;5007165;28;112891;-51
2024/03/11 03:48:58;;;;;;;87.18;45.13;;;8.40;91.70;;;;;;5006291;28;113246;-51
2024/03/11 03:51:24;;;;;;;79.70;43.58;;;8.40;91.60;;;;;;5006937;28;112924;-51
2024/03/11 03:53:50;;;;;;;93.32;42.35;;;8.50;91.60;;;;;;5007696;28;112583;-50
2024/03/11 03:56:15;;;;;;;89.60;41.63;;;8.50;91.50;;;;;;5007624;28;112748;-51
2024/03/11 03:58:41;;;;;;;96.65;42.17;;;8.50;91.50;;;;;;5006266;28;113195;-51
2024/03/11 04:01:08;;;;;;;114.45;42.03;;;8.50;91.50;;;;;;5005040;28;113618;-51
2024/03/11 04:03:36;;;;;;;85.70;39.72;;;8.50;91.50;;;;;;5007549;28;112713;-51
2024/03/11 04:06:05;;;;;;;141.02;42.20;;;8.50;91.50;;;;;;5008069;28;112752;-53
2024/03/11 04:08:30;;;;;;;106.15;41.10;;;8.50;91.60;;;;;;5006293;28;115015;-51
2024/03/11 04:10:56;;;;;;;116.38;41.05;;;8.40;91.50;;;;;;5005508;28;113151;-50
2024/03/11 04:13:26;;;;;;;115.03;43.28;;;8.40;91.70;;;;;;5005955;28;112739;-52
2024/03/11 04:15:52;;;;;;;97.85;43.30;;;8.50;91.80;;;;;;5007254;28;112660;-51
2024/03/11 04:18:18;;;;;;;92.13;42.22;;;8.40;91.70;;;;;;5006516;28;113242;-50
2024/03/11 04:20:44;;;;;;;150.32;43.30;;;8.50;91.70;;;;;;5007352;28;112790;-51
2024/03/11 04:23:12;;;;;;;110.10;42.47;;;8.50;91.50;;;;;;5010903;28;112452;-51
2024/03/11 04:25:37;;;;;;;92.75;42.83;;;8.40;91.70;;;;;;5011028;28;112667;-50
2024/03/11 04:28:05;;;;;;;105.05;43.17;;;8.50;91.90;;;;;;5009396;28;114725;-51
2024/03/11 04:30:38;;;;;;;90.05;42.10;;;8.50;91.70;;;;;;5010044;28;113064;-50
2024/03/11 04:33:06;;;;;;;93.15;42.17;;;8.50;91.60;;;;;;5002888;28;113483;-52
2024/03/11 04:35:35;;;;;;;115.10;43.50;;;8.50;91.60;;;;;;5010682;28;112752;-51
2024/03/11 04:38:05;;;;;;;134.30;44.55;;;8.40;91.70;;;;;;5009211;28;114528;-52
2024/03/11 04:40:34;;;;;;;89.72;40.10;;;8.40;91.80;;;;;;5009186;28;112847;-52
2024/03/11 04:43:00;;;;;;;80.10;42.17;;;8.50;91.60;;;;;;5010314;28;112525;-51
2024/03/11 04:45:27;;;;;;;76.88;40.85;;;8.50;91.70;;;;;;5010696;28;112651;-51
2024/03/11 04:47:59;;;;;;;79.68;41.97;;;8.60;91.70;;;;;;5009528;28;114398;-51
2024/03/11 04:50:30;;;;;;;80.22;41.40;;;8.60;91.80;;;;;;5009538;28;114247;-51
2024/03/11 04:53:06;;;;;;;86.35;43.42;;;8.60;91.60;;;;;;5010453;28;112632;-51
2024/03/11 04:55:34;;;;;;;79.85;43.33;;;8.70;91.70;;;;;;5010747;28;112598;-51
2024/03/11 04:58:00;;;;;;;79.88;42.47;;;8.70;91.60;;;;;;5009395;28;113262;-51
2024/03/11 05:00:28;;;;;;;78.28;43.42;;;8.70;91.50;;;;;;5009151;28;113073;-51
2024/03/11 05:03:01;;;;;;;94.88;44.30;;;8.70;91.50;;;;;;5010202;28;112637;-51
2024/03/11 05:05:29;;;;;;;77.95;41.67;;;8.70;91.50;;;;;;4990970;28;112682;-51
2024/03/11 05:07:55;;;;;;;91.75;44.80;;;8.80;91.60;;;;;;5008835;28;113210;-52
2024/03/11 05:10:21;;;;;;;89.90;45.58;;;8.70;91.60;;;;;;5008815;28;113941;-52
2024/03/11 05:12:47;;;;;;;78.88;41.47;;;8.80;91.50;;;;;;5010078;28;112607;-51
2024/03/11 05:15:13;;;;;;;92.40;44.92;;;8.80;91.30;;;;;;5010055;28;113226;-50
2024/03/11 05:17:39;;;;;;;75.05;40.95;;;8.90;91.30;;;;;;5008836;28;114785;-51
2024/03/11 05:20:06;;;;;;;81.68;43.40;;;8.90;91.20;;;;;;5009092;28;112857;-52
2024/03/11 05:22:35;;;;;;;83.18;43.90;;;8.80;91.20;;;;;;5007136;28;112619;-52
2024/03/11 05:25:00;;;;;;;83.97;44.97;;;8.80;91.10;;;;;;5009037;28;113152;-51
2024/03/11 05:27:26;;;;;;;84.22;42.22;;;8.80;91.20;;;;;;4990165;28;113536;-55
2024/03/11 05:29:52;;;;;;;88.47;42.97;;;8.80;91.20;;;;;;5008880;28;112682;-51
2024/03/11 05:32:18;;;;;;;78.82;41.58;;;8.80;91.20;;;;;;4991138;28;112849;-52
2024/03/11 05:34:44;;;;;;;81.85;41.45;;;8.80;91.20;;;;;;5008419;28;112976;-51
2024/03/11 05:37:10;;;;;;;86.93;40.45;;;8.80;91.20;;;;;;5008855;28;113778;-51
2024/03/11 05:39:36;;;;;;;88.97;42.60;;;8.70;91.20;;;;;;5008461;28;112663;-54
2024/03/11 05:42:05;;;;;;;88.05;41.05;;;8.70;91.30;;;;;;5009790;28;112746;-50
2024/03/11 05:44:32;;;;;;;84.32;40.78;;;8.60;91.30;;;;;;5009488;28;113079;-51
2024/03/11 05:46:59;;;;;;;77.72;40.75;;;8.60;91.30;;;;;;5008482;28;114595;-51
2024/03/11 05:49:28;;;;;;;79.30;39.67;;;8.60;91.20;;;;;;5008625;28;112541;-52
2024/03/11 05:51:55;;;;;;;90.55;40.53;;;8.60;91.30;;;;;;5009600;28;113012;-54
2024/03/11 05:54:21;;;;;;;76.13;40.13;;;8.60;91.30;;;;;;5009751;28;112697;-51
2024/03/11 05:57:00;;;;;;;79.00;40.13;;;8.60;91.20;;;;;;5008617;28;113191;-53
2024/03/11 05:59:27;;;;;;;82.20;39.83;;;8.70;91.20;;;;;;5006082;28;113991;-51
2024/03/11 06:01:55;;;;;;;85.47;40.63;;;8.70;91.20;;;;;;5007804;28;112704;-50
2024/03/11 06:04:21;;;;;;;82.72;40.85;;;8.70;91.20;;;;;;5004170;28;112984;-51
2024/03/11 06:06:48;;;;;;;83.22;41.63;;;8.60;91.20;;;;;;5007531;28;114603;-52
2024/03/11 06:09:15;;;;;;;91.63;42.47;;;8.60;91.30;;;;;;5006623;28;112654;-51
2024/03/11 06:11:50;;;;;;;90.35;42.47;;;8.60;91.30;;;;;;5003831;28;112598;-53
2024/03/11 06:14:17;;;;;;;89.65;41.38;;;8.60;91.20;;;;;;4997096;28;112608;-52
2024/03/11 06:16:44;;;;;;;93.65;42.28;;;8.60;91.30;;;;;;5005667;28;114316;-52
2024/03/11 06:19:11;;;;;;;89.35;40.15;;;8.60;91.30;;;;;;5003469;28;113180;-52
2024/03/11 06:21:37;;;;;;;80.00;40.75;;;8.60;91.20;;;;;;4971868;28;112703;-50
2024/03/11 06:39:49;;;;;;;64.20;38.35;;;8.90;90.90;;;;;;4981871;28;112682;-50
2024/03/11 06:42:14;;;;;;;67.88;37.25;;;9.10;90.30;;;;;;4946524;28;112551;-51
2024/03/11 06:44:40;;;;;;;70.60;38.33;;;9.10;90.20;;;;;;4945169;28;113111;-51
2024/03/11 06:47:11;;;;;;;63.25;37.28;;;9.20;90.20;;;;;;4943726;28;113546;-51
2024/03/11 06:49:37;;;;;;;67.18;37.13;;;9.30;90.30;;;;;;4943900;28;113378;-50
2024/03/11 06:52:03;;;;;;;63.90;36.15;;;9.40;90.00;;;;;;4945534;28;112967;-52
2024/03/11 06:54:30;;;;;;;64.00;35.92;;;9.40;89.80;;;;;;4946785;28;112754;-52
2024/03/11 06:56:56;;;;;;;66.68;37.83;;;9.40;89.80;;;;;;4954479;28;114632;-50
2024/03/11 06:59:21;;;;;;;57.97;35.10;;;9.40;89.80;;;;;;4952428;28;113939;-50
2024/03/11 07:01:47;;;;;;;66.05;35.55;;;9.50;89.70;;;;;;4956266;28;113021;-54
2024/03/11 07:04:13;;;;;;;59.60;35.53;;;9.60;89.80;;;;;;4949840;28;113096;-52
2024/03/11 07:06:39;;;;;;;53.47;34.47;;;9.50;89.70;;;;;;4958924;28;115180;-53
2024/03/11 07:09:06;;;;;;;57.13;34.85;;;9.60;89.60;;;;;;4948989;28;114048;-55
2024/03/11 07:11:32;;;;;;;54.58;33.85;;;9.60;89.60;;;;;;4958679;28;112600;-51
2024/03/11 07:13:57;;;;;;;51.67;34.08;;;9.60;89.40;;;;;;4950447;28;112817;-52
2024/03/11 07:16:23;;;;;;;48.88;33.20;;;9.80;89.40;;;;;;4956443;28;113926;-52
2024/03/11 07:18:53;;;;;;;47.05;32.65;;;9.90;88.70;;;;;;4947383;28;112773;-52
2024/03/11 07:21:19;;;;;;;52.25;32.75;;;9.80;88.50;;;;;;4954231;28;112776;-52
2024/03/11 07:23:48;;;;;;;46.72;32.95;;;9.80;88.20;;;;;;4949626;28;113820;-53
2024/03/11 07:26:14;;;;;;;50.85;34.15;;;9.90;88.70;;;;;;4962304;28;113310;-56
2024/03/11 07:28:40;;;;;;;50.63;34.13;;;10.00;88.50;;;;;;4961581;28;114458;-52
2024/03/11 07:31:06;;;;;;;47.17;32.47;;;10.10;88.40;;;;;;4963001;28;112845;-52
2024/03/11 07:33:32;;;;;;;47.20;32.28;;;10.30;87.60;;;;;;4961747;28;112842;-53
2024/03/11 07:35:58;;;;;;;49.65;33.13;;;10.40;87.80;;;;;;4955149;28;114272;-52
2024/03/11 07:38:23;;;;;;;44.70;33.03;;;10.40;87.70;;;;;;4961950;28;112684;-50
2024/03/11 07:40:50;;;;;;;43.58;32.25;;;10.60;87.30;;;;;;4949315;28;113362;-57
2024/03/11 07:43:15;;;;;;;43.15;32.85;;;10.60;87.00;;;;;;4950089;28;112700;-52
2024/03/11 07:45:41;;;;;;;49.92;34.47;;;10.60;87.00;;;;;;4947944;28;113525;-53
2024/03/11 07:48:14;;;;;;;47.03;34.22;;;10.50;87.00;;;;;;4948804;28;113632;-52
2024/03/11 07:50:41;;;;;;;43.45;33.85;;;10.80;86.80;;;;;;4949528;28;112620;-52
2024/03/11 07:53:07;;;;;;;46.47;33.67;;;10.80;86.70;;;;;;4936638;28;112860;-52
2024/03/11 07:55:38;;;;;;;41.88;31.45;;;10.80;86.70;;;;;;4948785;28;114350;-52
2024/03/11 07:58:04;;;;;;;39.17;29.70;;;10.90;86.80;;;;;;4947406;28;113110;-53
2024/03/11 08:00:31;;;;;;;39.25;29.45;;;11.00;86.70;;;;;;4950162;28;112827;-52
2024/03/11 08:02:58;;;;;;;38.83;28.70;;;11.10;85.60;;;;;;4948854;28;112782;-52
2024/03/11 08:05:24;;;;;;;33.95;27.30;;;11.10;85.70;;;;;;4949323;28;113552;-52
2024/03/11 08:07:50;;;;;;;32.05;26.83;;;11.30;85.60;;;;;;4946634;28;114501;-52
2024/03/11 08:10:17;;;;;;;36.08;25.95;;;11.30;85.50;;;;;;4939750;28;112881;-51
2024/03/11 08:12:45;;;;;;;35.10;26.42;;;11.30;85.30;;;;;;4939446;28;112780;-53
2024/03/11 08:15:12;;;;;;;30.88;24.48;;;11.40;85.50;;;;;;4941543;28;113404;-52
2024/03/11 08:17:42;;;;;;;29.88;24.30;;;11.50;85.60;;;;;;4929755;28;112775;-53
2024/03/11 08:20:16;;;;;;;28.35;21.75;;;11.40;85.30;;;;;;4936356;28;113136;-52
2024/03/11 08:22:43;;;;;;;31.92;22.35;;;11.50;85.10;;;;;;4930615;28;112791;-52
2024/03/11 08:25:11;;;;;;;21.95;17.15;;;11.50;85.50;;;;;;4937890;28;114909;-51
2024/03/11 08:27:40;;;;;;;16.58;12.80;;;11.50;84.80;;;;;;4932919;28;112703;-51
2024/03/11 08:30:10;;;;;;;14.20;11.90;;;11.40;83.70;;;;;;4938604;28;112943;-54
2024/03/11 08:32:36;;;;;;;14.90;12.15;;;11.40;83.50;;;;;;4934150;28;114922;-52
2024/03/11 08:35:05;;;;;;;21.52;15.32;;;11.60;84.00;;;;;;4936917;28;113090;-53
2024/03/11 08:37:31;;;;;;;20.27;16.55;;;11.90;82.90;;;;;;4934079;28;113182;-52
2024/03/11 08:39:57;;;;;;;22.38;17.40;;;11.90;82.40;;;;;;4937248;28;113301;-52
2024/03/11 08:42:26;;;;;;;21.15;16.88;;;12.00;81.80;;;;;;4933698;28;113086;-52
2024/03/11 08:44:52;;;;;;;22.80;15.13;;;12.20;81.70;;;;;;4936434;28;114790;-52
2024/03/11 08:47:20;;;;;;;25.50;15.65;;;12.40;81.60;;;;;;4936163;28;112953;-52
2024/03/11 08:49:46;;;;;;;17.13;13.73;;;12.80;80.40;;;;;;4938007;28;112628;-52
2024/03/11 08:52:13;;;;;;;18.30;13.15;;;12.90;79.00;;;;;;4933333;28;112938;-52
2024/03/11 08:54:43;;;;;;;15.95;13.57;;;13.30;78.70;;;;;;4937977;28;114408;-54
2024/03/11 08:57:10;;;;;;;17.15;13.75;;;13.30;77.80;;;;;;4934138;28;113052;-52
2024/03/11 08:59:37;;;;;;;16.88;14.57;;;13.40;77.80;;;;;;4940845;28;112669;-51
2024/03/11 09:02:03;;;;;;;15.00;13.43;;;13.30;77.70;;;;;;4930170;28;113509;-53
2024/03/11 09:04:29;;;;;;;17.30;11.85;;;13.50;77.10;;;;;;4941916;28;113825;-54
2024/03/11 09:06:57;;;;;;;15.05;10.07;;;13.30;77.50;;;;;;4932010;28;114047;-55
2024/03/11 09:09:27;;;;;;;11.68;10.00;;;13.80;77.00;;;;;;4943254;28;112818;-53
2024/03/11 09:11:57;;;;;;;9.60;8.60;;;13.90;75.10;;;;;;4932622;28;113851;-52
2024/03/11 09:14:32;;;;;;;10.75;8.35;;;14.00;75.10;;;;;;4940172;28;113419;-52
2024/03/11 09:17:00;;;;;;;9.00;7.40;;;14.40;73.90;;;;;;4933220;28;112791;-52
2024/03/11 09:19:27;;;;;;;11.75;8.93;;;14.60;73.00;;;;;;4932468;28;113515;-52
2024/03/11 09:21:54;;;;;;;11.02;7.88;;;15.00;71.80;;;;;;4931052;28;113240;-52
2024/03/11 09:24:20;;;;;;;9.38;7.90;;;15.40;71.00;;;;;;4932107;28;114150;-52
2024/03/11 09:26:51;;;;;;;8.50;7.13;;;15.80;67.90;;;;;;4943042;28;112818;-52
2024/03/11 09:29:18;;;;;;;9.10;6.70;;;16.00;67.70;;;;;;4933630;28;112568;-52
2024/03/11 09:31:46;;;;;;;11.65;7.55;;;15.70;68.40;;;;;;4930687;28;112702;-53
2024/03/11 09:34:12;;;;;;;10.13;6.95;;;16.20;67.70;;;;;;4932679;28;113153;-52
2024/03/11 09:36:39;;;;;;;10.23;8.15;;;16.50;65.70;;;;;;4940288;28;112912;-55
2024/03/11 09:39:06;;;;;;;12.65;8.93;;;16.30;65.50;;;;;;4936873;28;112986;-53
2024/03/11 09:41:44;;;;;;;10.23;9.23;;;16.40;65.00;;;;;;4930703;28;112785;-52
2024/03/11 09:44:13;;;;;;;12.20;8.70;;;16.50;64.80;;;;;;4933677;28;114665;-53
2024/03/11 09:46:40;;;;;;;9.07;7.90;;;16.90;64.00;;;;;;4929575;28;113383;-53
2024/03/11 09:49:07;;;;;;;10.77;7.70;;;17.00;62.80;;;;;;4944041;28;114240;-51
2024/03/11 09:51:34;;;;;;;10.77;8.65;;;17.40;61.80;;;;;;4930776;28;113790;-53
2024/03/11 09:54:01;;;;;;;9.38;8.35;;;17.30;62.30;;;;;;4934343;28;114599;-52
2024/03/11 09:56:27;;;;;;;9.27;8.25;;;17.20;61.90;;;;;;4934988;28;113023;-52
2024/03/11 09:59:04;;;;;;;10.23;9.07;;;17.20;62.30;;;;;;4942227;28;112842;-53
2024/03/11 10:01:31;;;;;;;11.07;9.90;;;16.70;64.20;;;;;;4930694;28;112969;-52
2024/03/11 10:03:58;;;;;;;11.20;9.98;;;16.50;64.10;;;;;;4940338;28;113153;-53
2024/03/11 10:06:25;;;;;;;11.13;9.98;;;16.90;62.90;;;;;;4930042;28;112733;-53
2024/03/11 10:08:51;;;;;;;11.65;9.07;;;17.40;63.60;;;;;;4932192;28;112616;-52
2024/03/11 10:11:21;;;;;;;10.18;8.52;;;17.50;59.80;;;;;;4934059;28;112707;-56
2024/03/11 10:13:48;;;;;;;10.15;9.15;;;17.60;61.80;;;;;;4930918;28;115114;-52
2024/03/11 10:16:18;;;;;;;9.90;8.05;;;17.80;60.30;;;;;;4941225;28;112928;-53
2024/03/11 10:19:02;;;;;;;9.10;8.20;;;18.00;60.10;;;;;;4942510;28;113021;-50
2024/03/11 10:21:31;;;;;;;9.00;8.15;;;18.00;59.40;;;;;;4939026;28;112776;-51
2024/03/11 10:24:01;;;;;;;10.02;9.02;;;17.80;59.50;;;;;;4943160;28;113367;-54
2024/03/11 10:26:30;;;;;;;10.65;9.65;;;18.30;58.90;;;;;;4936969;28;112564;-52
2024/03/11 10:28:56;;;;;;;9.98;8.98;;;18.20;59.40;;;;;;4945806;28;112628;-51
2024/03/11 10:31:24;;;;;;;10.13;8.23;;;18.60;57.90;;;;;;4936409;28;112701;-52
2024/03/11 10:34:03;;;;;;;12.15;10.73;;;18.80;56.20;;;;;;4938469;28;112894;-52
2024/03/11 10:36:30;;;;;;;12.07;9.30;;;18.80;56.50;;;;;;4934309;28;112821;-52
2024/03/11 10:39:18;;;;;;;8.60;7.28;;;18.90;56.10;;;;;;4939377;28;113104;-52
2024/03/11 10:41:46;;;;;;;5.72;4.70;;;19.30;54.20;;;;;;4937929;28;114411;-51
2024/03/11 10:44:15;;;;;;;5.78;5.03;;;19.90;50.80;;;;;;4937033;28;113389;-53
2024/03/11 10:46:42;;;;;;;7.28;6.57;;;19.70;52.60;;;;;;4937256;28;112825;-52
2024/03/11 10:49:15;;;;;;;7.85;7.07;;;20.00;53.20;;;;;;4939345;28;112730;-51
2024/03/11 10:51:48;;;;;;;7.35;6.65;;;20.40;50.70;;;;;;4938310;28;112751;-50
2024/03/11 10:54:28;;;;;;;7.15;5.82;;;20.70;49.50;;;;;;4938181;28;113341;-52
2024/03/11 10:56:56;;;;;;;8.25;7.03;;;21.40;48.50;;;;;;4938599;28;114539;-51
2024/03/11 10:59:34;;;;;;;6.30;5.80;;;20.50;51.30;;;;;;4938170;28;112831;-52
2024/03/11 11:02:04;;;;;;;7.05;6.45;;;20.90;51.00;;;;;;4945665;28;112796;-51
2024/03/11 11:04:33;;;;;;;6.20;5.35;;;21.60;49.30;;;;;;4937595;28;114462;-53
2024/03/11 11:07:02;;;;;;;6.10;5.60;;;21.90;46.40;;;;;;4938712;28;113035;-51
2024/03/11 11:09:29;;;;;;;5.90;5.40;;;21.80;46.70;;;;;;4939385;28;112700;-51
2024/03/11 11:11:56;;;;;;;5.50;5.00;;;21.10;47.30;;;;;;4939505;28;112758;-52
2024/03/11 11:14:24;;;;;;;5.30;4.90;;;21.40;46.10;;;;;;4937495;28;114564;-50
2024/03/11 11:16:51;;;;;;;6.25;5.68;;;21.70;45.90;;;;;;4941309;28;113124;-52
2024/03/11 11:19:23;;;;;;;5.68;4.60;;;21.40;45.60;;;;;;4950209;28;112894;-52
2024/03/11 11:21:52;;;;;;;7.03;5.63;;;20.80;47.10;;;;;;4936877;28;112514;-53
2024/03/11 11:24:32;;;;;;;6.55;5.85;;;21.90;46.70;;;;;;4932986;28;113714;-50
2024/03/11 11:26:59;;;;;;;5.80;5.05;;;23.40;43.10;;;;;;4936841;28;113819;-51
2024/03/11 11:29:31;;;;;;;4.97;4.53;;;24.20;42.60;;;;;;4935336;28;112467;-51
2024/03/11 11:32:06;;;;;;;4.70;4.38;;;23.40;41.50;;;;;;4936936;28;112707;-54
2024/03/11 11:34:54;;;;;;;5.95;5.35;;;23.30;42.00;;;;;;4932433;28;114405;-54
2024/03/11 11:37:23;;;;;;;4.60;4.10;;;23.10;42.90;;;;;;4936754;28;113187;-51
2024/03/11 11:39:56;;;;;;;3.88;3.58;;;23.00;41.40;;;;;;4934718;28;112883;-51
2024/03/11 11:42:35;;;;;;;5.25;4.85;;;21.90;43.80;;;;;;4937492;28;112707;-51
2024/03/11 11:45:01;;;;;;;4.82;4.20;;;22.00;43.50;;;;;;4934281;28;114360;-51
2024/03/11 11:47:27;;;;;;;3.92;3.42;;;22.50;43.70;;;;;;4937177;28;113862;-52
2024/03/11 11:49:54;;;;;;;2.85;2.42;;;23.90;41.70;;;;;;4937086;28;112719;-55
2024/03/11 11:52:23;;;;;;;3.70;3.40;;;24.80;38.50;;;;;;4931873;28;112812;-52
2024/03/11 11:54:52;;;;;;;3.60;3.30;;;24.50;39.00;;;;;;4930884;28;114772;-53
2024/03/11 11:57:21;;;;;;;3.75;3.45;;;25.00;38.70;;;;;;4930887;28;112706;-51
2024/03/11 11:59:53;;;;;;;4.60;3.50;;;24.10;39.30;;;;;;4931318;28;114609;-53
2024/03/11 12:02:25;;;;;;;3.72;3.15;;;24.10;40.20;;;;;;4931963;28;112846;-53
2024/03/11 12:04:54;;;;;;;3.55;3.25;;;22.90;40.70;;;;;;4931068;28;113386;-52
2024/03/11 12:07:23;;;;;;;3.60;3.22;;;22.80;41.00;;;;;;4930531;28;113861;-53
2024/03/11 12:10:10;;;;;;;3.95;3.55;;;21.20;43.90;;;;;;4931591;28;113012;-52
2024/03/11 12:12:43;;;;;;;4.55;4.15;;;21.40;43.90;;;;;;4931542;28;114080;-53
2024/03/11 12:15:21;;;;;;;4.38;3.97;;;19.80;47.60;;;;;;4946206;28;113285;-51
2024/03/11 12:17:48;;;;;;;4.85;4.45;;;19.80;48.20;;;;;;4949946;28;112871;-55
2024/03/11 12:20:30;;;;;;;5.45;4.93;;;20.80;47.00;;;;;;4951186;28;112848;-51
2024/03/11 12:23:00;;;;;;;6.20;5.55;;;21.50;44.60;;;;;;4951404;28;112694;-52
2024/03/11 12:25:33;;;;;;;6.50;5.55;;;21.90;44.10;;;;;;4949629;28;115485;-52
2024/03/11 12:28:09;;;;;;;5.85;5.35;;;22.30;44.90;;;;;;4948710;28;113880;-52
2024/03/11 12:30:48;;;;;;;6.30;5.75;;;20.90;45.10;;;;;;4944922;28;112628;-50
2024/03/11 12:33:14;;;;;;;6.15;5.30;;;19.90;47.10;;;;;;4940500;28;113201;-53
2024/03/11 12:35:43;;;;;;;5.80;5.07;;;21.10;45.30;;;;;;4943857;28;113478;-54
2024/03/11 12:38:10;;;;;;;5.22;4.72;;;20.60;46.30;;;;;;4935342;28;112604;-53
2024/03/11 12:40:42;;;;;;;5.57;5.15;;;20.80;46.20;;;;;;4946184;28;112457;-52
2024/03/11 12:43:29;;;;;;;5.10;4.60;;;20.90;45.80;;;;;;4935563;28;114592;-53
2024/03/11 12:46:00;;;;;;;4.57;4.18;;;21.60;46.30;;;;;;4935607;28;113702;-51